Iron Mountain, California
Current Conditions -  °F | °C
As of 4:55 PM on Wednesday 22 Oct 2014 (Local Time) from KPVF Reporting Station
Clear Clear  
Wind Chill: 68°   Ceiling: Unl
Heat Index: 68°   Visibility: 10mi
Dew Point: 36°   Wind: 0mph
Humidity: 30%   Direction: NA
Pressure: 30.07"   Gusts: NA
Location:  38.5644°N, 120.32°W
Report Text: KPVF 222355Z AUTO 00000KT 10SM CLR 20/02 A3007 RMK AO1
Loading
Personal Weather Stations






























Interactive Weather Map
Tropical Storm Tracking
New forecast layout! Learn more

10-Day Weather Forecast

Advertisements
Track Severe Weather on mobile